createdAt,value
2023-03-24T00:00:48.050Z,16.98
2023-03-24T00:03:25.923Z,17.10
2023-03-24T00:05:58.689Z,17.38
2023-03-24T00:08:30.843Z,17.33
2023-03-24T00:11:00.607Z,17.11
2023-03-24T00:13:29.141Z,16.94
2023-03-24T00:15:56.971Z,16.79
2023-03-24T00:18:26.347Z,16.90
2023-03-24T00:20:59.278Z,16.74
2023-03-24T00:23:28.235Z,16.80
2023-03-24T00:26:02.959Z,16.63
2023-03-24T00:28:33.514Z,16.76
2023-03-24T00:31:02.311Z,16.57
2023-03-24T00:33:35.461Z,16.68
2023-03-24T00:36:05.717Z,16.16
2023-03-24T00:38:34.763Z,16.37
2023-03-24T00:41:02.669Z,16.60
2023-03-24T00:43:30.952Z,15.72
2023-03-24T00:46:04.253Z,15.52
2023-03-24T00:48:35.443Z,15.65
2023-03-24T00:51:03.279Z,15.47
2023-03-24T00:53:31.697Z,15.83
2023-03-24T00:55:59.406Z,15.86
2023-03-24T00:58:30.154Z,16.16
2023-03-24T01:00:58.547Z,15.98
2023-03-24T01:03:51.186Z,16.28
2023-03-24T01:06:22.493Z,16.13
2023-03-24T01:08:54.011Z,16.23
2023-03-24T01:11:22.968Z,16.49
2023-03-24T01:13:51.681Z,16.65
2023-03-24T01:16:19.504Z,16.70
2023-03-24T01:18:49.708Z,16.89
2023-03-24T01:21:18.459Z,16.80
2023-03-24T01:23:46.554Z,16.72
2023-03-24T01:26:14.329Z,16.83
2023-03-24T01:28:44.044Z,16.67
2023-03-24T01:31:12.041Z,16.74
2023-03-24T01:33:40.823Z,16.59
2023-03-24T01:36:10.114Z,16.94
2023-03-24T01:38:38.571Z,16.95
2023-03-24T01:41:06.844Z,16.79
2023-03-24T01:43:36.075Z,16.57
2023-03-24T01:46:08.842Z,16.45
2023-03-24T01:48:46.021Z,16.55
2023-03-24T01:51:22.332Z,16.79
2023-03-24T01:53:55.332Z,16.59
2023-03-24T01:56:24.520Z,16.84
2023-03-24T01:58:56.388Z,16.77
2023-03-24T02:01:39.460Z,16.49
2023-03-24T02:04:28.202Z,16.35
2023-03-24T02:07:05.802Z,16.31
2023-03-24T02:09:34.122Z,16.18
2023-03-24T02:12:03.390Z,16.08
2023-03-24T02:14:33.243Z,16.13
2023-03-24T02:17:17.671Z,16.22
2023-03-24T02:19:52.509Z,16.44
2023-03-24T02:22:20.215Z,16.44
2023-03-24T02:24:48.406Z,16.42
2023-03-24T02:27:31.125Z,16.28
2023-03-24T02:30:22.316Z,15.88
2023-03-24T02:33:16.989Z,15.80
2023-03-24T02:35:46.006Z,16.10
2023-03-24T02:38:38.767Z,16.10
2023-03-24T02:41:28.416Z,15.88
2023-03-24T02:44:05.945Z,15.76
2023-03-24T02:46:34.348Z,16.23
2023-03-24T02:49:07.698Z,16.16
2023-03-24T02:51:51.184Z,16.23
2023-03-24T02:54:34.305Z,16.14
2023-03-24T02:57:10.646Z,16.06
2023-03-24T03:00:20.268Z,16.04
2023-03-24T03:03:08.465Z,15.48
2023-03-24T03:05:42.770Z,15.34
2023-03-24T03:08:13.359Z,15.38
2023-03-24T03:10:43.251Z,15.09
2023-03-24T03:13:15.821Z,15.24
2023-03-24T03:15:44.725Z,14.80
2023-03-24T03:18:25.871Z,14.89
2023-03-24T03:20:57.575Z,15.04
2023-03-24T03:23:29.747Z,14.91
2023-03-24T03:26:06.251Z,15.18
2023-03-24T03:28:36.832Z,15.22
2023-03-24T03:31:08.382Z,15.38
2023-03-24T03:33:42.815Z,15.36
2023-03-24T03:36:25.116Z,15.35
2023-03-24T03:38:53.596Z,15.41
2023-03-24T03:41:21.550Z,15.34
2023-03-24T03:43:51.066Z,15.00
2023-03-24T03:46:19.413Z,14.88
2023-03-24T03:48:49.053Z,14.75
2023-03-24T03:51:16.727Z,14.52
2023-03-24T03:53:53.687Z,14.59
2023-03-24T03:56:24.444Z,14.93
2023-03-24T03:59:26.294Z,14.97
2023-03-24T04:01:56.950Z,14.88
2023-03-24T04:04:53.178Z,15.14
2023-03-24T04:07:48.236Z,15.05
2023-03-24T04:10:44.836Z,15.12
2023-03-24T04:13:35.174Z,15.00
2023-03-24T04:16:42.408Z,14.87
2023-03-24T04:19:44.027Z,14.72
2023-03-24T04:22:15.895Z,14.73
2023-03-24T04:24:50.205Z,14.63
2023-03-24T04:27:57.309Z,14.92
2023-03-24T04:30:27.674Z,14.83
2023-03-24T04:32:58.722Z,14.86
2023-03-24T04:35:33.073Z,14.85
2023-03-24T04:38:18.695Z,14.97
2023-03-24T04:40:56.139Z,15.09
2023-03-24T04:43:28.144Z,15.14
2023-03-24T04:45:58.120Z,15.26
2023-03-24T04:48:58.705Z,15.14
2023-03-24T04:51:37.716Z,15.16
2023-03-24T04:54:10.026Z,15.07
2023-03-24T04:56:42.368Z,15.09
2023-03-24T04:59:16.715Z,15.08
2023-03-24T05:01:52.098Z,15.32
2023-03-24T05:04:40.598Z,15.18
2023-03-24T05:07:15.707Z,15.11
2023-03-24T05:09:45.030Z,15.11
2023-03-24T05:12:13.212Z,15.12
2023-03-24T05:15:01.801Z,14.90
2023-03-24T05:17:29.685Z,14.78
2023-03-24T05:19:57.658Z,14.72
2023-03-24T05:22:25.309Z,14.83
2023-03-24T05:24:53.240Z,14.96
2023-03-24T05:27:21.372Z,15.17
2023-03-24T05:29:49.592Z,15.17
2023-03-24T05:32:25.955Z,15.30
2023-03-24T05:34:54.163Z,15.30
2023-03-24T05:37:29.966Z,15.51
2023-03-24T05:39:57.957Z,15.42
2023-03-24T05:42:49.614Z,15.51
2023-03-24T05:45:17.873Z,15.44
2023-03-24T05:47:46.450Z,15.39
2023-03-24T05:50:14.813Z,15.55
2023-03-24T05:52:43.314Z,15.58
2023-03-24T05:55:37.947Z,15.74
2023-03-24T05:58:20.112Z,15.74
2023-03-24T06:00:52.454Z,15.72
2023-03-24T06:03:34.816Z,15.95
2023-03-24T06:06:17.056Z,15.85
2023-03-24T06:08:45.606Z,15.79
2023-03-24T06:11:15.176Z,15.89
2023-03-24T06:13:53.595Z,16.14
2023-03-24T06:16:24.250Z,16.10
2023-03-24T06:18:56.001Z,16.20
2023-03-24T06:21:44.892Z,16.36
2023-03-24T06:24:15.109Z,16.35
2023-03-24T06:26:46.052Z,16.33
2023-03-24T06:29:18.548Z,16.49
2023-03-24T06:31:48.852Z,16.45
2023-03-24T06:34:17.133Z,16.31
2023-03-24T06:36:53.438Z,16.62
2023-03-24T06:39:21.781Z,16.70
2023-03-24T06:41:50.061Z,16.68
2023-03-24T06:44:17.808Z,16.70
2023-03-24T06:46:47.577Z,16.62
2023-03-24T06:49:15.624Z,16.76
2023-03-24T06:51:43.607Z,17.08
2023-03-24T06:54:13.875Z,17.13
2023-03-24T06:56:42.011Z,17.12
2023-03-24T06:59:10.437Z,17.14
2023-03-24T07:01:39.915Z,17.37
2023-03-24T07:04:36.833Z,17.53
2023-03-24T07:07:44.837Z,17.93
2023-03-24T07:10:30.604Z,18.14
2023-03-24T07:12:59.873Z,18.32
2023-03-24T07:15:27.782Z,18.23
2023-03-24T07:17:56.732Z,18.16
2023-03-24T07:20:50.721Z,18.59
2023-03-24T07:23:21.104Z,18.67
2023-03-24T07:26:03.642Z,18.78
2023-03-24T07:28:50.168Z,19.20
2023-03-24T07:31:38.275Z,18.93
2023-03-24T07:34:09.385Z,18.79
2023-03-24T07:36:40.082Z,18.93
2023-03-24T07:39:13.754Z,18.98
2023-03-24T07:41:41.742Z,19.06
2023-03-24T07:44:19.705Z,18.99
2023-03-24T07:46:51.120Z,18.83
2023-03-24T07:49:20.189Z,18.88
2023-03-24T07:52:09.986Z,18.76
2023-03-24T07:54:41.558Z,18.82
2023-03-24T07:57:11.073Z,18.78
2023-03-24T07:59:39.823Z,18.81
2023-03-24T08:02:33.457Z,18.69
2023-03-24T08:05:22.567Z,18.73
2023-03-24T08:08:00.666Z,18.83
2023-03-24T08:10:29.915Z,18.38
2023-03-24T08:12:58.007Z,18.56
2023-03-24T08:15:27.286Z,18.84
2023-03-24T08:17:56.774Z,18.67
2023-03-24T08:20:27.525Z,18.70
2023-03-24T08:22:55.832Z,18.50
2023-03-24T08:25:24.599Z,18.63
2023-03-24T08:27:52.835Z,18.44
2023-03-24T08:30:22.303Z,18.70
2023-03-24T08:32:54.394Z,18.79
2023-03-24T08:35:24.096Z,18.87
2023-03-24T08:37:52.257Z,18.96
2023-03-24T08:40:23.514Z,18.77
2023-03-24T08:42:53.482Z,19.01
2023-03-24T08:45:22.014Z,18.61
2023-03-24T08:47:52.240Z,18.83
2023-03-24T08:50:21.798Z,19.00
2023-03-24T08:52:50.352Z,18.92
2023-03-24T08:55:19.318Z,18.34
2023-03-24T08:57:47.773Z,19.01
2023-03-24T09:00:16.021Z,19.59
2023-03-24T09:02:45.686Z,19.82
2023-03-24T09:05:15.576Z,19.45
2023-03-24T09:07:43.575Z,19.71
2023-03-24T09:10:11.275Z,20.30
2023-03-24T09:12:39.510Z,20.46
2023-03-24T09:15:08.511Z,20.16
2023-03-24T09:17:37.038Z,20.51
2023-03-24T09:20:08.844Z,20.66
2023-03-24T09:22:37.656Z,20.91
2023-03-24T09:25:05.701Z,20.81
2023-03-24T09:27:33.800Z,20.38
2023-03-24T09:30:01.494Z,20.39
2023-03-24T09:32:29.825Z,20.69
2023-03-24T09:34:57.450Z,20.23
2023-03-24T09:37:25.828Z,19.99
2023-03-24T09:39:55.226Z,20.10
2023-03-24T09:42:24.566Z,20.05
2023-03-24T09:44:56.979Z,19.99
2023-03-24T09:47:40.182Z,19.51
2023-03-24T09:50:09.824Z,19.94
2023-03-24T09:52:40.188Z,19.89
2023-03-24T09:55:14.498Z,19.86
2023-03-24T09:57:45.001Z,20.08
2023-03-24T10:00:15.813Z,19.38
2023-03-24T10:02:44.099Z,19.22
2023-03-24T10:05:21.781Z,19.23
2023-03-24T10:07:53.051Z,19.63
2023-03-24T10:10:34.233Z,20.09
2023-03-24T10:13:22.342Z,20.48
2023-03-24T10:16:00.329Z,20.34
2023-03-24T10:18:35.049Z,20.60
2023-03-24T10:21:22.701Z,20.95
2023-03-24T10:24:10.852Z,20.95
2023-03-24T10:26:58.644Z,21.58
2023-03-24T10:29:34.824Z,21.92
2023-03-24T10:32:02.521Z,21.51
2023-03-24T10:34:33.139Z,20.53
2023-03-24T10:37:02.392Z,21.16
2023-03-24T10:39:41.960Z,21.04
2023-03-24T10:42:32.865Z,20.97
2023-03-24T10:45:01.016Z,21.29
2023-03-24T10:47:32.923Z,21.49
2023-03-24T10:50:12.685Z,22.01
2023-03-24T10:52:47.621Z,22.12
2023-03-24T10:55:19.417Z,22.03
2023-03-24T10:57:50.001Z,21.08
2023-03-24T11:00:24.655Z,21.29
2023-03-24T11:02:57.885Z,21.81
2023-03-24T11:05:30.093Z,23.17
2023-03-24T11:08:13.179Z,23.57
2023-03-24T11:10:41.155Z,23.68
2023-03-24T11:13:18.994Z,23.73
2023-03-24T11:15:54.296Z,22.69
2023-03-24T11:18:22.422Z,22.19
2023-03-24T11:20:58.331Z,22.36
2023-03-24T11:23:25.925Z,23.14
2023-03-24T11:26:04.483Z,22.84
2023-03-24T11:28:36.199Z,23.39
2023-03-24T11:31:08.391Z,23.90
2023-03-24T11:33:42.269Z,24.96
2023-03-24T11:36:34.005Z,24.01
2023-03-24T11:39:11.147Z,24.78
2023-03-24T11:41:42.097Z,24.84
2023-03-24T11:44:21.811Z,23.61
2023-03-24T11:46:58.622Z,23.55
2023-03-24T11:49:28.143Z,23.35
2023-03-24T11:51:56.213Z,24.13
2023-03-24T11:54:44.051Z,24.52
2023-03-24T11:57:13.938Z,23.82
2023-03-24T12:00:00.378Z,24.25
2023-03-24T12:02:47.217Z,24.81
2023-03-24T12:05:26.917Z,23.94
2023-03-24T12:08:07.257Z,25.20
2023-03-24T12:10:34.860Z,24.77
2023-03-24T12:13:13.492Z,24.43
2023-03-24T12:15:55.637Z,25.27
2023-03-24T12:18:23.610Z,24.85
2023-03-24T12:21:09.670Z,24.32
2023-03-24T12:23:54.974Z,25.46
2023-03-24T12:26:28.008Z,24.37
2023-03-24T12:29:07.633Z,24.38
2023-03-24T12:31:47.524Z,23.31
2023-03-24T12:34:33.952Z,24.80
2023-03-24T12:37:07.405Z,25.38
2023-03-24T12:39:37.786Z,25.13
2023-03-24T12:42:05.438Z,24.13
2023-03-24T12:44:58.131Z,24.15
2023-03-24T12:47:25.967Z,25.38
2023-03-24T12:50:12.367Z,25.89
2023-03-24T12:52:49.061Z,26.54
2023-03-24T12:55:35.739Z,26.10
2023-03-24T12:58:12.428Z,26.30
2023-03-24T13:00:46.838Z,25.28
2023-03-24T13:03:21.664Z,23.72
2023-03-24T13:05:56.632Z,23.82
2023-03-24T13:08:30.438Z,24.93
2023-03-24T13:11:02.942Z,24.90
2023-03-24T13:13:33.206Z,24.41
2023-03-24T13:16:03.531Z,24.09
2023-03-24T13:19:00.437Z,24.78
2023-03-24T13:21:30.181Z,25.01
2023-03-24T13:24:01.107Z,26.09
2023-03-24T13:26:47.865Z,26.16
2023-03-24T13:29:21.942Z,26.19
2023-03-24T13:31:57.440Z,26.74
2023-03-24T13:34:31.522Z,27.53
2023-03-24T13:37:04.404Z,25.90
2023-03-24T13:39:34.844Z,26.30
2023-03-24T13:42:03.395Z,27.02
2023-03-24T13:44:42.761Z,27.31
2023-03-24T13:47:17.869Z,27.64
2023-03-24T13:49:59.443Z,26.72
2023-03-24T13:52:31.234Z,26.29
2023-03-24T13:55:00.689Z,24.77
2023-03-24T13:57:28.923Z,25.61
2023-03-24T14:00:12.296Z,26.33
2023-03-24T14:02:42.782Z,24.86
2023-03-24T14:05:12.308Z,25.49
2023-03-24T14:07:40.390Z,26.61
2023-03-24T14:10:10.892Z,26.75
2023-03-24T14:12:52.231Z,24.86
2023-03-24T14:15:40.163Z,25.68
2023-03-24T14:18:16.119Z,24.77
2023-03-24T14:20:56.019Z,25.66
2023-03-24T14:23:29.840Z,27.00
2023-03-24T14:25:58.811Z,26.26
2023-03-24T14:28:47.727Z,26.35
2023-03-24T14:31:18.590Z,27.62
2023-03-24T14:34:02.361Z,27.93
2023-03-24T14:36:39.841Z,26.90
2023-03-24T14:39:27.287Z,25.37
2023-03-24T14:41:55.892Z,24.57
2023-03-24T14:44:43.630Z,26.19
2023-03-24T14:47:12.156Z,25.86
2023-03-24T14:49:43.167Z,25.47
2023-03-24T14:52:17.493Z,26.35
2023-03-24T14:55:20.815Z,25.84
2023-03-24T14:57:52.091Z,26.49
2023-03-24T15:00:23.087Z,26.10
2023-03-24T15:02:52.638Z,27.43
2023-03-24T15:05:23.586Z,27.51
2023-03-24T15:08:09.416Z,27.87
2023-03-24T15:10:56.046Z,28.19
2023-03-24T15:13:43.409Z,29.26
2023-03-24T15:16:11.504Z,25.90
2023-03-24T15:19:01.776Z,25.88
2023-03-24T15:21:43.885Z,25.77
2023-03-24T15:24:23.275Z,24.81
2023-03-24T15:27:14.173Z,23.72
2023-03-24T15:29:42.837Z,24.29
2023-03-24T15:32:17.290Z,23.97
2023-03-24T15:34:50.816Z,24.09
2023-03-24T15:37:48.496Z,24.51
2023-03-24T15:40:30.687Z,23.78
2023-03-24T15:43:03.782Z,23.73
2023-03-24T15:45:32.984Z,23.88
2023-03-24T15:48:27.515Z,23.66
2023-03-24T15:50:57.029Z,23.05
2023-03-24T15:53:27.532Z,23.31
2023-03-24T15:56:02.702Z,23.22
2023-03-24T15:58:32.577Z,23.68
2023-03-24T16:01:03.024Z,23.75
2023-03-24T16:03:34.450Z,23.57
2023-03-24T16:06:03.149Z,23.69
2023-03-24T16:08:41.376Z,23.94
2023-03-24T16:11:12.293Z,24.10
2023-03-24T16:13:41.270Z,23.36
2023-03-24T16:16:11.798Z,23.45
2023-03-24T16:18:41.377Z,23.52
2023-03-24T16:21:13.672Z,23.24
2023-03-24T16:23:44.833Z,23.26
2023-03-24T16:26:15.568Z,23.81
2023-03-24T16:28:43.934Z,23.73
2023-03-24T16:31:18.388Z,23.49
2023-03-24T16:33:47.063Z,23.37
2023-03-24T16:36:15.550Z,23.43
2023-03-24T16:38:44.392Z,23.56
2023-03-24T16:41:14.936Z,23.47
2023-03-24T16:43:43.691Z,23.08
2023-03-24T16:46:16.278Z,23.29
2023-03-24T16:48:44.930Z,23.50
2023-03-24T16:51:16.585Z,23.43
2023-03-24T16:53:45.484Z,23.36
2023-03-24T16:56:14.454Z,23.36
2023-03-24T16:58:42.683Z,23.21
2023-03-24T17:01:27.553Z,23.20
2023-03-24T17:03:55.893Z,23.23
2023-03-24T17:06:24.418Z,23.23
2023-03-24T17:08:52.569Z,23.21
2023-03-24T17:11:24.244Z,23.33
2023-03-24T17:13:52.122Z,23.28
2023-03-24T17:16:19.729Z,23.19
2023-03-24T17:18:47.673Z,23.18
2023-03-24T17:21:16.842Z,22.97
2023-03-24T17:23:47.093Z,23.00
2023-03-24T17:26:14.963Z,22.91
2023-03-24T17:28:43.112Z,22.97
2023-03-24T17:31:10.988Z,22.89
2023-03-24T17:33:39.032Z,22.78
2023-03-24T17:36:06.896Z,22.62
2023-03-24T17:38:34.951Z,22.66
2023-03-24T17:41:04.224Z,22.50
2023-03-24T17:43:33.070Z,22.67
2023-03-24T17:46:01.626Z,22.58
2023-03-24T17:48:29.910Z,22.12
2023-03-24T17:50:57.568Z,22.09
2023-03-24T17:53:25.952Z,22.14
2023-03-24T17:55:54.881Z,22.11
2023-03-24T17:58:24.202Z,21.61
2023-03-24T18:00:52.230Z,21.95
2023-03-24T18:03:21.885Z,22.10
2023-03-24T18:05:50.305Z,21.81
2023-03-24T18:08:18.563Z,21.91
2023-03-24T18:10:46.514Z,21.68
2023-03-24T18:13:14.724Z,21.68
2023-03-24T18:15:43.088Z,22.10
2023-03-24T18:18:11.288Z,21.60
2023-03-24T18:20:39.534Z,21.77
2023-03-24T18:23:07.709Z,21.82
2023-03-24T18:25:35.652Z,21.72
2023-03-24T18:28:03.756Z,21.72
2023-03-24T18:30:32.506Z,21.44
2023-03-24T18:33:01.788Z,21.14
2023-03-24T18:35:29.875Z,21.23
2023-03-24T18:37:57.874Z,21.30
2023-03-24T18:40:25.515Z,21.11
2023-03-24T18:42:53.469Z,21.55
2023-03-24T18:45:21.232Z,21.44
2023-03-24T18:47:49.148Z,21.22
2023-03-24T18:50:16.964Z,21.01
2023-03-24T18:52:44.886Z,21.27
2023-03-24T18:55:12.611Z,21.09
2023-03-24T18:57:41.268Z,21.27
2023-03-24T19:00:10.942Z,21.08
2023-03-24T19:02:39.285Z,20.92
2023-03-24T19:05:07.147Z,21.17
2023-03-24T19:07:37.260Z,20.87
2023-03-24T19:10:05.500Z,21.02
2023-03-24T19:12:33.647Z,21.09
2023-03-24T19:15:01.816Z,21.11
2023-03-24T19:17:29.749Z,20.93
2023-03-24T19:19:58.360Z,21.02
2023-03-24T19:22:27.091Z,20.97
2023-03-24T19:24:54.690Z,20.70
2023-03-24T19:27:23.556Z,20.81
2023-03-24T19:29:51.422Z,20.89
2023-03-24T19:32:19.492Z,20.34
2023-03-24T19:34:47.302Z,20.52
2023-03-24T19:37:15.376Z,20.52
2023-03-24T19:39:42.920Z,20.26
2023-03-24T19:42:10.853Z,20.57
2023-03-24T19:44:38.431Z,20.39
2023-03-24T19:47:06.404Z,20.62
2023-03-24T19:49:33.966Z,20.62
2023-03-24T19:52:01.961Z,20.64
2023-03-24T19:54:29.611Z,20.60
2023-03-24T19:56:57.761Z,20.56
2023-03-24T19:59:26.674Z,20.84
2023-03-24T20:01:54.611Z,20.84
2023-03-24T20:04:22.525Z,20.64
2023-03-24T20:06:51.092Z,20.73
2023-03-24T20:09:18.673Z,20.43
2023-03-24T20:11:47.721Z,20.47
2023-03-24T20:14:17.030Z,20.56
2023-03-24T20:16:44.957Z,20.52
2023-03-24T20:19:12.591Z,20.36
2023-03-24T20:21:40.831Z,20.37
2023-03-24T20:24:08.667Z,20.09
2023-03-24T20:26:37.799Z,20.27
2023-03-24T20:29:05.470Z,20.57
2023-03-24T20:31:33.580Z,20.47
2023-03-24T20:34:02.450Z,20.30
2023-03-24T20:36:31.560Z,20.32
2023-03-24T20:38:59.810Z,20.54
2023-03-24T20:41:28.067Z,20.41
2023-03-24T20:43:56.729Z,20.48
2023-03-24T20:46:24.734Z,20.38
2023-03-24T20:48:52.375Z,20.38
2023-03-24T20:51:20.948Z,20.40
2023-03-24T20:53:49.919Z,20.18
2023-03-24T20:56:19.460Z,19.99
2023-03-24T20:58:47.181Z,20.00
2023-03-24T21:01:23.051Z,19.63
2023-03-24T21:03:51.879Z,19.97
2023-03-24T21:06:20.653Z,20.05
2023-03-24T21:08:48.184Z,20.09
2023-03-24T21:11:16.333Z,20.28
2023-03-24T21:13:44.076Z,19.70
2023-03-24T21:16:12.366Z,19.90
2023-03-24T21:18:43.991Z,19.96
2023-03-24T21:21:12.800Z,19.89
2023-03-24T21:23:41.371Z,19.60
2023-03-24T21:26:12.531Z,19.63
2023-03-24T21:28:40.380Z,19.50
2023-03-24T21:31:09.639Z,19.60
2023-03-24T21:33:41.055Z,19.77
2023-03-24T21:36:10.089Z,19.30
2023-03-24T21:38:39.750Z,19.27
2023-03-24T21:41:07.890Z,19.19
2023-03-24T21:43:35.730Z,19.24
2023-03-24T21:46:04.158Z,19.23
2023-03-24T21:48:35.061Z,19.41
2023-03-24T21:51:04.264Z,19.25
2023-03-24T21:53:32.191Z,19.01
2023-03-24T21:56:08.661Z,19.17
2023-03-24T21:58:36.481Z,18.95
2023-03-24T22:01:04.548Z,19.21
2023-03-24T22:03:34.742Z,19.16
2023-03-24T22:06:03.390Z,19.35
2023-03-24T22:08:31.189Z,19.02
2023-03-24T22:10:59.986Z,19.07
2023-03-24T22:13:28.505Z,19.11
2023-03-24T22:15:57.529Z,18.92
2023-03-24T22:18:26.412Z,18.70
2023-03-24T22:21:01.197Z,18.72
2023-03-24T22:23:33.048Z,18.99
2023-03-24T22:26:04.378Z,19.15
2023-03-24T22:28:33.082Z,18.95
2023-03-24T22:31:01.823Z,19.12
2023-03-24T22:33:29.499Z,18.95
2023-03-24T22:35:58.196Z,19.03
2023-03-24T22:38:26.198Z,19.12
2023-03-24T22:41:12.893Z,18.96
2023-03-24T22:43:42.163Z,19.10
2023-03-24T22:46:10.797Z,18.79
2023-03-24T22:48:39.024Z,18.99
2023-03-24T22:51:07.196Z,18.84
2023-03-24T22:53:36.146Z,18.83
2023-03-24T22:56:06.419Z,18.93
2023-03-24T22:58:35.888Z,18.94
2023-03-24T23:01:04.053Z,18.80
2023-03-24T23:03:31.664Z,18.79
2023-03-24T23:06:03.610Z,18.82
2023-03-24T23:08:32.537Z,18.90
2023-03-24T23:11:00.686Z,18.69
2023-03-24T23:13:31.317Z,18.62
2023-03-24T23:15:59.290Z,18.74
2023-03-24T23:18:26.958Z,18.80
2023-03-24T23:21:01.521Z,18.64
2023-03-24T23:23:29.076Z,18.80
2023-03-24T23:25:57.716Z,18.71
2023-03-24T23:28:25.595Z,18.56
2023-03-24T23:30:54.680Z,18.63
2023-03-24T23:33:22.492Z,18.53
2023-03-24T23:35:55.739Z,18.66
2023-03-24T23:38:23.877Z,18.66
2023-03-24T23:40:51.794Z,18.58
2023-03-24T23:43:19.405Z,18.71
2023-03-24T23:45:47.515Z,18.59
2023-03-24T23:48:15.190Z,18.70
2023-03-24T23:50:46.494Z,18.97
2023-03-24T23:53:14.133Z,18.90
2023-03-24T23:55:42.127Z,18.66
2023-03-24T23:58:09.740Z,18.63
